Terminal Aerodrome Forecast
Issued by NWS Knoxville/Tri Cities, TN

Home | Current Version | Previous Version | Text Only | Print | Product List | Glossary On
Versions: 1 2 3 4 5 6 7 8 9 10 11 12 13 14 15 16 17 18 19 20 21 22 23 24
783
FTUS44 KMRX 010520
TAFTYS
TAF
KTYS 010520Z 0106/0206 33005KT P6SM SCT080
     FM011800 01010KT P6SM VCTS BKN050CB
     FM012300 02008KT P6SM SCT250=

USA.gov is the U.S. government's official web portal to all federal, state and local government web resources and services.